createdAt,value
2023-02-17T00:00:33.896Z,4.29
2023-02-17T00:01:33.826Z,4.26
2023-02-17T00:02:33.835Z,4.24
2023-02-17T00:03:33.851Z,4.21
2023-02-17T00:04:33.800Z,4.19
2023-02-17T00:05:33.782Z,4.17
2023-02-17T00:06:33.808Z,4.16
2023-02-17T00:07:33.758Z,4.16
2023-02-17T00:08:33.783Z,4.18
2023-02-17T00:09:33.753Z,4.21
2023-02-17T00:10:33.717Z,4.23
2023-02-17T00:11:33.707Z,4.27
2023-02-17T00:12:33.733Z,4.31
2023-02-17T00:13:33.680Z,4.35
2023-02-17T00:14:33.688Z,4.40
2023-02-17T00:17:30.709Z,4.43
2023-02-17T00:20:51.212Z,4.47
2023-02-17T00:20:56.603Z,4.53
2023-02-17T00:21:57.187Z,4.60
2023-02-17T00:22:56.609Z,4.65
2023-02-17T00:23:56.571Z,4.68
2023-02-17T00:24:56.548Z,4.68
2023-02-17T00:25:56.547Z,4.67
2023-02-17T00:26:56.536Z,4.68
2023-02-17T00:27:56.521Z,4.69
2023-02-17T00:28:56.556Z,4.71
2023-02-17T00:29:56.543Z,4.72
2023-02-17T00:30:56.632Z,4.73
2023-02-17T00:31:56.651Z,4.74
2023-02-17T00:32:56.460Z,4.73
2023-02-17T00:33:56.530Z,4.71
2023-02-17T00:34:56.456Z,4.68
2023-02-17T00:35:56.428Z,4.64
2023-02-17T00:36:56.408Z,4.61
2023-02-17T00:37:56.384Z,4.57
2023-02-17T00:38:56.374Z,4.54
2023-02-17T00:39:56.364Z,4.50
2023-02-17T00:40:56.405Z,4.46
2023-02-17T00:41:56.369Z,4.42
2023-02-17T00:42:56.332Z,4.39
2023-02-17T00:43:56.333Z,4.36
2023-02-17T00:44:56.308Z,4.34
2023-02-17T00:45:56.299Z,4.34
2023-02-17T00:46:56.314Z,4.34
2023-02-17T00:47:56.267Z,4.35
2023-02-17T00:48:56.249Z,4.34
2023-02-17T00:49:56.248Z,4.33
2023-02-17T00:50:56.248Z,4.31
2023-02-17T00:51:56.225Z,4.29
2023-02-17T00:52:56.244Z,4.27
2023-02-17T00:53:56.188Z,4.26
2023-02-17T00:54:56.186Z,4.24
2023-02-17T00:55:56.158Z,4.22
2023-02-17T00:56:56.204Z,4.20
2023-02-17T00:57:56.145Z,4.18
2023-02-17T00:58:56.160Z,4.15
2023-02-17T00:59:56.114Z,4.13
2023-02-17T01:00:56.113Z,4.10
2023-02-17T01:01:56.126Z,4.08
2023-02-17T01:02:56.083Z,4.08
2023-02-17T01:03:56.069Z,4.09
2023-02-17T01:04:56.096Z,4.10
2023-02-17T01:05:56.041Z,4.12
2023-02-17T01:06:56.044Z,4.14
2023-02-17T01:07:56.018Z,4.16
2023-02-17T01:08:56.006Z,4.16
2023-02-17T01:09:55.992Z,4.15
2023-02-17T01:10:56.010Z,4.14
2023-02-17T01:11:55.995Z,4.12
2023-02-17T01:12:55.992Z,4.11
2023-02-17T01:13:55.944Z,4.09
2023-02-17T01:14:55.928Z,4.07
2023-02-17T01:15:55.928Z,4.05
2023-02-17T01:16:55.934Z,4.03
2023-02-17T01:17:55.899Z,4.02
2023-02-17T01:18:55.884Z,4.01
2023-02-17T01:19:55.856Z,3.99
2023-02-17T01:20:55.874Z,3.98
2023-02-17T01:21:55.854Z,3.97
2023-02-17T01:22:55.867Z,3.97
2023-02-17T01:23:55.810Z,3.96
2023-02-17T01:24:55.797Z,3.97
2023-02-17T01:25:55.817Z,3.98
2023-02-17T01:26:55.785Z,3.99
2023-02-17T01:27:55.783Z,4.02
2023-02-17T01:28:55.800Z,4.04
2023-02-17T01:29:55.764Z,4.08
2023-02-17T01:30:55.791Z,4.13
2023-02-17T01:31:55.754Z,4.21
2023-02-17T01:32:55.698Z,4.30
2023-02-17T01:33:55.684Z,4.37
2023-02-17T01:34:55.735Z,4.44
2023-02-17T01:35:55.680Z,4.48
2023-02-17T01:36:55.658Z,4.50
2023-02-17T01:37:55.641Z,4.51
2023-02-17T01:38:55.635Z,4.50
2023-02-17T01:39:55.602Z,4.48
2023-02-17T01:40:55.631Z,4.46
2023-02-17T01:41:55.610Z,4.44
2023-02-17T01:42:55.576Z,4.43
2023-02-17T01:43:55.559Z,4.41
2023-02-17T01:44:55.542Z,4.41
2023-02-17T01:45:55.544Z,4.42
2023-02-17T01:46:55.582Z,4.44
2023-02-17T01:47:55.506Z,4.47
2023-02-17T01:48:55.493Z,4.50
2023-02-17T01:49:55.479Z,4.53
2023-02-17T01:50:55.465Z,4.54
2023-02-17T01:51:55.444Z,4.55
2023-02-17T01:52:55.481Z,4.56
2023-02-17T01:53:55.429Z,4.56
2023-02-17T01:54:55.428Z,4.56
2023-02-17T01:55:55.409Z,4.54
2023-02-17T01:56:55.385Z,4.52
2023-02-17T01:57:55.399Z,4.49
2023-02-17T01:58:55.394Z,4.47
2023-02-17T01:59:55.355Z,4.45
2023-02-17T02:00:55.346Z,4.42
2023-02-17T05:17:04.931Z,6.85
2023-02-17T05:19:33.311Z,6.84
2023-02-17T05:21:53.245Z,6.80
2023-02-17T05:22:54.250Z,6.34
2023-02-17T05:23:51.748Z,6.83
2023-02-17T05:24:52.715Z,6.37
2023-02-17T05:25:52.689Z,6.07
2023-02-17T05:26:52.694Z,5.89
2023-02-17T05:27:52.656Z,5.78
2023-02-17T05:28:52.671Z,5.70
2023-02-17T05:29:52.650Z,5.65
2023-02-17T05:30:52.636Z,5.62
2023-02-17T05:31:52.677Z,5.60
2023-02-17T05:32:52.627Z,5.58
2023-02-17T05:33:52.592Z,5.57
2023-02-17T05:34:52.613Z,5.58
2023-02-17T05:35:52.566Z,5.60
2023-02-17T05:36:52.571Z,5.62
2023-02-17T05:37:52.540Z,5.64
2023-02-17T05:38:52.532Z,5.64
2023-02-17T05:39:52.514Z,5.63
2023-02-17T05:40:52.539Z,5.62
2023-02-17T05:41:52.511Z,5.61
2023-02-17T05:42:52.487Z,5.60
2023-02-17T05:43:52.477Z,5.59
2023-02-17T05:44:52.458Z,5.58
2023-02-17T05:45:52.438Z,5.58
2023-02-17T05:46:52.479Z,5.59
2023-02-17T05:47:52.417Z,5.61
2023-02-17T05:48:52.402Z,5.62
2023-02-17T05:49:52.389Z,5.61
2023-02-17T05:50:52.376Z,5.59
2023-02-17T05:51:52.376Z,5.57
2023-02-17T05:52:52.381Z,5.53
2023-02-17T05:53:52.333Z,5.50
2023-02-17T05:54:52.351Z,5.46
2023-02-17T05:55:52.317Z,5.43
2023-02-17T05:56:52.315Z,5.41
2023-02-17T05:57:52.294Z,5.39
2023-02-17T05:58:52.313Z,5.38
2023-02-17T05:59:52.271Z,5.37
2023-02-17T06:00:52.256Z,5.36
2023-02-17T06:01:52.255Z,5.35
2023-02-17T06:02:52.356Z,5.34
2023-02-17T06:03:52.203Z,5.33
2023-02-17T06:04:52.320Z,5.34
2023-02-17T06:05:52.198Z,5.34
2023-02-17T06:06:52.174Z,5.36
2023-02-17T06:07:52.175Z,5.37
2023-02-17T06:08:52.149Z,5.38
2023-02-17T06:09:52.141Z,5.40
2023-02-17T06:10:52.193Z,5.41
2023-02-17T06:11:52.790Z,5.41
2023-02-17T06:12:52.124Z,5.42
2023-02-17T06:13:52.107Z,5.43
2023-02-17T06:14:52.075Z,5.44
2023-02-17T06:15:52.794Z,5.44
2023-02-17T06:16:52.087Z,5.43
2023-02-17T06:17:52.040Z,5.43
2023-02-17T06:18:52.066Z,5.42
2023-02-17T06:19:52.013Z,5.41
2023-02-17T06:20:51.998Z,5.41
2023-02-17T06:21:52.041Z,5.42
2023-02-17T06:22:52.018Z,5.43
2023-02-17T06:23:51.998Z,5.44
2023-02-17T06:24:51.961Z,5.44
2023-02-17T06:25:51.935Z,5.45
2023-02-17T06:26:51.977Z,5.46
2023-02-17T06:27:51.917Z,5.47
2023-02-17T06:28:52.003Z,5.48
2023-02-17T06:29:51.932Z,5.49
2023-02-17T06:30:51.894Z,5.49
2023-02-17T06:31:52.004Z,5.49
2023-02-17T06:32:51.859Z,5.49
2023-02-17T06:33:51.844Z,5.48
2023-02-17T06:34:51.904Z,5.48
2023-02-17T06:35:51.824Z,5.46
2023-02-17T06:36:51.807Z,5.43
2023-02-17T06:37:51.854Z,5.41
2023-02-17T06:38:51.779Z,5.38
2023-02-17T06:39:51.751Z,5.36
2023-02-17T06:40:51.776Z,5.35
2023-02-17T06:41:51.746Z,5.33
2023-02-17T06:42:51.715Z,5.33
2023-02-17T06:43:51.725Z,5.32
2023-02-17T06:44:51.773Z,5.33
2023-02-17T06:45:51.754Z,5.34
2023-02-17T06:46:51.708Z,5.34
2023-02-17T06:47:51.669Z,5.34
2023-02-17T06:48:51.705Z,5.34
2023-02-17T06:49:51.645Z,5.35
2023-02-17T06:50:51.619Z,5.35
2023-02-17T06:51:51.608Z,5.35
2023-02-17T06:52:51.641Z,5.34
2023-02-17T06:53:51.573Z,5.34
2023-02-17T06:54:51.562Z,5.34
2023-02-17T06:55:51.555Z,5.35
2023-02-17T06:56:51.552Z,5.36
2023-02-17T06:57:51.533Z,5.38
2023-02-17T06:58:51.538Z,5.40
2023-02-17T06:59:51.530Z,5.44
2023-02-17T07:00:51.496Z,5.47
2023-02-17T07:01:51.515Z,5.52
2023-02-17T07:02:51.645Z,5.56
2023-02-17T07:03:51.461Z,5.60
2023-02-17T07:04:51.474Z,5.63
2023-02-17T07:05:51.420Z,5.66
2023-02-17T07:06:51.406Z,5.69
2023-02-17T07:07:51.424Z,5.72
2023-02-17T07:08:51.415Z,5.75
2023-02-17T07:09:51.376Z,5.77
2023-02-17T07:10:51.391Z,5.77
2023-02-17T07:11:51.359Z,5.78
2023-02-17T07:12:51.930Z,5.79
2023-02-17T07:13:51.336Z,5.80
2023-02-17T07:14:51.328Z,5.81
2023-02-17T07:15:51.303Z,5.83
2023-02-17T07:16:51.323Z,5.85
2023-02-17T07:17:51.515Z,5.88
2023-02-17T07:18:51.254Z,5.90
2023-02-17T07:19:51.270Z,5.91
2023-02-17T07:20:51.233Z,5.94
2023-02-17T07:21:51.250Z,5.96
2023-02-17T07:22:51.268Z,5.99
2023-02-17T07:23:51.233Z,6.02
2023-02-17T07:24:51.211Z,6.04
2023-02-17T07:25:51.175Z,6.07
2023-02-17T07:26:51.189Z,6.10
2023-02-17T07:27:51.159Z,6.14
2023-02-17T07:28:51.168Z,6.18
2023-02-17T07:29:51.138Z,6.23
2023-02-17T07:30:51.176Z,6.27
2023-02-17T07:31:51.160Z,6.31
2023-02-17T07:32:51.138Z,6.33
2023-02-17T07:33:51.069Z,6.35
2023-02-17T07:34:51.104Z,6.36
2023-02-17T07:35:51.069Z,6.35
2023-02-17T07:36:51.035Z,6.33
2023-02-17T07:37:51.027Z,6.32
2023-02-17T07:38:51.011Z,6.30
2023-02-17T07:39:51.006Z,6.29
2023-02-17T07:40:51.026Z,6.30
2023-02-17T07:41:50.982Z,6.33
2023-02-17T07:42:50.966Z,6.37
2023-02-17T07:43:50.936Z,6.41
2023-02-17T07:44:50.963Z,6.46
2023-02-17T07:45:51.052Z,6.52
2023-02-17T07:46:50.968Z,6.57
2023-02-17T07:47:50.907Z,6.63
2023-02-17T07:48:50.884Z,6.70
2023-02-17T07:49:50.881Z,6.77
2023-02-17T07:50:50.849Z,6.83
2023-02-17T07:51:50.849Z,6.88
2023-02-17T07:52:50.872Z,6.90
2023-02-17T07:53:50.841Z,6.93
2023-02-17T07:54:50.806Z,6.95
2023-02-17T07:55:50.795Z,6.98
2023-02-17T07:56:50.787Z,7.01
2023-02-17T07:57:50.797Z,7.03
2023-02-17T07:58:50.806Z,7.05
2023-02-17T07:59:50.726Z,7.06
2023-02-17T08:00:50.760Z,7.05
2023-02-17T08:01:50.795Z,7.04
2023-02-17T08:02:50.701Z,7.03
2023-02-17T08:03:50.771Z,7.03
2023-02-17T08:04:50.697Z,7.03
2023-02-17T08:05:50.683Z,7.04
2023-02-17T08:06:50.670Z,7.07
2023-02-17T08:07:50.626Z,7.12
2023-02-17T08:08:50.608Z,7.21
2023-02-17T08:09:50.603Z,7.31
2023-02-17T08:10:50.649Z,7.41
2023-02-17T08:11:50.619Z,7.50
2023-02-17T08:12:50.571Z,7.57
2023-02-17T08:13:50.560Z,7.65
2023-02-17T08:14:50.532Z,7.75
2023-02-17T08:15:51.930Z,7.86
2023-02-17T08:16:50.576Z,7.96
2023-02-17T08:17:51.182Z,8.07
2023-02-17T08:18:50.485Z,8.17
2023-02-17T08:19:50.510Z,8.26
2023-02-17T08:20:50.472Z,8.38
2023-02-17T08:21:50.460Z,8.63
2023-02-17T08:22:50.496Z,8.98
2023-02-17T08:23:50.509Z,9.29
2023-02-17T08:24:50.440Z,9.50
2023-02-17T08:25:50.401Z,9.63
2023-02-17T08:26:50.403Z,9.64
2023-02-17T08:27:50.394Z,9.55
2023-02-17T08:28:50.419Z,9.50
2023-02-17T08:29:50.364Z,9.49
2023-02-17T08:30:50.572Z,9.47
2023-02-17T08:31:50.594Z,9.42
2023-02-17T08:32:50.329Z,9.36
2023-02-17T08:33:50.309Z,9.31
2023-02-17T08:34:50.352Z,9.30
2023-02-17T08:35:50.326Z,9.30
2023-02-17T08:36:50.282Z,9.27
2023-02-17T08:37:50.323Z,9.18
2023-02-17T08:38:50.378Z,9.07
2023-02-17T08:39:50.238Z,8.96
2023-02-17T08:40:50.301Z,8.87
2023-02-17T08:41:50.204Z,8.80
2023-02-17T08:42:50.184Z,8.72
2023-02-17T08:43:50.161Z,8.65
2023-02-17T08:44:50.158Z,8.61
2023-02-17T08:45:50.231Z,8.57
2023-02-17T08:46:50.168Z,8.57
2023-02-17T08:47:50.116Z,8.59
2023-02-17T08:48:50.098Z,8.62
2023-02-17T08:49:50.149Z,8.65
2023-02-17T08:50:50.092Z,8.67
2023-02-17T08:51:50.154Z,8.68
2023-02-17T08:52:50.081Z,8.68
2023-02-17T08:53:50.075Z,8.66
2023-02-17T08:54:51.720Z,8.62
2023-02-17T08:55:50.097Z,8.58
2023-02-17T08:56:50.075Z,8.55
2023-02-17T08:57:50.088Z,8.54
2023-02-17T08:58:50.370Z,8.58
2023-02-17T08:59:49.964Z,8.65
2023-02-17T09:00:49.972Z,8.78
2023-02-17T09:01:49.967Z,8.90
2023-02-17T09:02:49.956Z,9.01
2023-02-17T09:03:49.953Z,9.15
2023-02-17T09:04:50.020Z,9.30
2023-02-17T09:05:50.615Z,9.45
2023-02-17T09:06:49.954Z,9.55
2023-02-17T09:07:49.876Z,9.59
2023-02-17T09:08:49.874Z,9.58
2023-02-17T09:09:49.833Z,9.57
2023-02-17T09:10:49.861Z,9.64
2023-02-17T09:11:49.830Z,9.70
2023-02-17T09:12:49.871Z,9.74
2023-02-17T09:13:49.795Z,9.79
2023-02-17T09:14:49.775Z,9.82
2023-02-17T09:15:49.782Z,9.81
2023-02-17T09:16:49.794Z,9.74
2023-02-17T09:17:49.744Z,9.64
2023-02-17T09:18:49.787Z,9.58
2023-02-17T09:19:49.695Z,9.55
2023-02-17T09:20:49.708Z,9.52
2023-02-17T09:21:49.723Z,9.51
2023-02-17T09:22:51.434Z,9.50
2023-02-17T09:23:49.701Z,9.53
2023-02-17T09:24:49.642Z,9.62
2023-02-17T09:25:49.625Z,9.72
2023-02-17T09:26:49.620Z,9.76
2023-02-17T09:27:49.659Z,9.73
2023-02-17T09:28:49.620Z,9.66
2023-02-17T09:29:50.369Z,9.56
2023-02-17T09:30:49.651Z,9.46
2023-02-17T09:31:49.659Z,9.34
2023-02-17T09:32:49.540Z,9.24
2023-02-17T09:33:49.557Z,9.14
2023-02-17T09:34:49.622Z,9.08
2023-02-17T09:35:49.512Z,9.05
2023-02-17T09:36:49.499Z,9.07
2023-02-17T09:37:49.539Z,9.11
2023-02-17T09:38:49.481Z,9.17
2023-02-17T09:39:49.528Z,9.32
2023-02-17T09:40:49.470Z,9.56
2023-02-17T09:41:49.474Z,9.76
2023-02-17T09:42:49.418Z,9.87
2023-02-17T09:43:49.431Z,9.93
2023-02-17T09:44:49.398Z,10.01
2023-02-17T09:45:49.384Z,10.13
2023-02-17T09:47:00.908Z,10.25
2023-02-17T09:47:49.377Z,10.28
2023-02-17T09:48:49.366Z,10.22
2023-02-17T09:49:49.344Z,10.16
2023-02-17T09:50:49.309Z,10.12
2023-02-17T09:51:49.305Z,10.03
2023-02-17T09:52:49.362Z,9.92
2023-02-17T09:53:49.292Z,9.89
2023-02-17T09:54:49.318Z,10.04
2023-02-17T09:55:49.242Z,10.45
2023-02-17T10:01:25.440Z,12.54
2023-02-17T10:02:49.101Z,12.02
2023-02-17T10:03:26.500Z,11.58
2023-02-17T10:04:26.436Z,11.25
2023-02-17T10:05:26.450Z,11.00
2023-02-17T10:06:26.448Z,10.83
2023-02-17T10:07:26.352Z,10.74
2023-02-17T10:08:26.341Z,10.73
2023-02-17T10:09:26.278Z,10.74
2023-02-17T10:10:26.290Z,10.70
2023-02-17T10:11:26.264Z,10.65
2023-02-17T10:12:26.300Z,10.63
2023-02-17T10:13:26.238Z,10.64
2023-02-17T10:14:26.304Z,10.62
2023-02-17T10:15:26.271Z,10.62
2023-02-17T10:16:26.293Z,10.65
2023-02-17T10:17:26.195Z,10.68
2023-02-17T10:18:26.206Z,10.69
2023-02-17T10:19:26.211Z,10.66
2023-02-17T10:20:26.160Z,10.56
2023-02-17T10:21:26.228Z,10.41
2023-02-17T10:22:26.131Z,10.30
2023-02-17T10:23:26.226Z,10.22
2023-02-17T10:24:26.175Z,10.13
2023-02-17T10:25:26.078Z,10.07
2023-02-17T10:26:26.088Z,10.01
2023-02-17T10:27:26.101Z,9.92
2023-02-17T10:28:26.048Z,9.86
2023-02-17T10:29:26.072Z,9.86
2023-02-17T10:30:26.115Z,9.86
2023-02-17T10:31:26.192Z,9.85
2023-02-17T10:32:26.172Z,9.83
2023-02-17T10:33:26.063Z,9.84
2023-02-17T10:34:25.996Z,9.94
2023-02-17T10:35:25.975Z,10.11
2023-02-17T10:36:25.971Z,10.54
2023-02-17T10:37:26.058Z,11.21
2023-02-17T10:38:26.181Z,11.91
2023-02-17T10:39:25.902Z,12.48
2023-02-17T10:40:25.900Z,12.82
2023-02-17T10:41:25.928Z,13.09
2023-02-17T10:42:25.993Z,13.45
2023-02-17T10:43:25.896Z,13.88
2023-02-17T10:44:25.944Z,14.43
2023-02-17T10:45:25.913Z,14.82
2023-02-17T10:46:25.881Z,14.80
2023-02-17T10:47:25.924Z,14.54
2023-02-17T10:48:25.848Z,14.57
2023-02-17T10:49:25.805Z,14.94
2023-02-17T10:50:25.866Z,15.37
2023-02-17T10:51:25.834Z,15.65
2023-02-17T10:52:25.903Z,15.64
2023-02-17T10:53:25.824Z,15.39
2023-02-17T10:54:25.814Z,15.09
2023-02-17T10:55:25.808Z,14.64
2023-02-17T10:56:25.726Z,14.16
2023-02-17T10:57:27.115Z,13.75
2023-02-17T10:58:25.660Z,13.30
2023-02-17T10:59:25.698Z,12.78
2023-02-17T11:00:25.686Z,12.33
2023-02-17T11:01:25.633Z,12.07
2023-02-17T11:02:25.615Z,12.19
2023-02-17T11:03:25.656Z,12.69
2023-02-17T11:04:25.705Z,13.32
2023-02-17T11:05:25.644Z,13.94
2023-02-17T11:06:25.605Z,14.46
2023-02-17T11:07:25.635Z,14.81
2023-02-17T11:08:25.582Z,15.12
2023-02-17T11:09:25.709Z,15.42
2023-02-17T11:10:25.630Z,15.64
2023-02-17T11:11:25.487Z,15.71
2023-02-17T11:12:25.607Z,15.78
2023-02-17T11:13:25.587Z,15.99
2023-02-17T11:14:25.460Z,16.00
2023-02-17T11:15:25.530Z,15.86
2023-02-17T11:16:25.544Z,15.63
2023-02-17T11:17:25.438Z,15.22
2023-02-17T11:18:25.563Z,14.80
2023-02-17T11:19:25.393Z,14.40
2023-02-17T11:20:25.467Z,14.00
2023-02-17T11:21:25.429Z,13.61
2023-02-17T11:22:25.356Z,13.28
2023-02-17T11:23:25.366Z,13.03
2023-02-17T11:24:25.398Z,12.74
2023-02-17T11:25:25.306Z,12.46
2023-02-17T11:26:25.378Z,12.25
2023-02-17T11:27:25.284Z,12.07
2023-02-17T11:28:25.346Z,11.85
2023-02-17T11:29:25.366Z,11.65
2023-02-17T11:30:25.328Z,11.49
2023-02-17T11:31:25.488Z,11.33
2023-02-17T11:32:25.288Z,11.22
2023-02-17T11:33:25.241Z,11.14
2023-02-17T11:34:25.203Z,11.07
2023-02-17T11:35:25.191Z,11.01
2023-02-17T11:36:25.340Z,10.94
2023-02-17T11:37:25.177Z,10.86
2023-02-17T11:38:25.210Z,10.79
2023-02-17T11:39:25.159Z,10.72
2023-02-17T11:40:26.559Z,10.67
2023-02-17T11:41:25.132Z,10.66
2023-02-17T11:42:25.145Z,10.70
2023-02-17T11:43:25.154Z,10.82
2023-02-17T11:44:25.122Z,11.00
2023-02-17T11:45:25.107Z,11.20
2023-02-17T11:46:25.119Z,11.33
2023-02-17T11:47:25.051Z,11.37
2023-02-17T11:48:25.149Z,11.35
2023-02-17T11:49:25.036Z,11.29
2023-02-17T11:50:40.079Z,11.26
2023-02-17T11:51:25.013Z,11.42
2023-02-17T11:52:25.038Z,11.70
2023-02-17T11:53:25.125Z,11.87
2023-02-17T11:54:24.979Z,11.90
2023-02-17T11:55:24.926Z,11.90
2023-02-17T11:56:25.009Z,12.06
2023-02-17T11:57:25.060Z,12.45
2023-02-17T11:58:24.894Z,12.77
2023-02-17T11:59:24.985Z,12.77
2023-02-17T12:00:25.064Z,12.59
2023-02-17T12:01:24.851Z,12.49
2023-02-17T12:02:24.877Z,12.52
2023-02-17T12:03:24.930Z,12.58
2023-02-17T12:04:24.880Z,12.59
2023-02-17T12:05:24.902Z,12.44
2023-02-17T12:06:24.924Z,12.18
2023-02-17T12:07:24.894Z,11.90
2023-02-17T12:08:24.770Z,11.64
2023-02-17T12:09:24.746Z,11.44
2023-02-17T12:10:24.751Z,11.24
2023-02-17T12:11:24.728Z,11.08
2023-02-17T12:12:24.888Z,10.98
2023-02-17T12:13:24.738Z,10.97
2023-02-17T12:14:24.739Z,11.00
2023-02-17T12:15:24.819Z,10.98
2023-02-17T12:16:24.699Z,10.96
2023-02-17T12:17:24.734Z,10.99
2023-02-17T12:18:24.855Z,11.03
2023-02-17T12:19:24.773Z,11.09
2023-02-17T12:20:24.731Z,11.13
2023-02-17T12:21:24.687Z,11.07
2023-02-17T12:22:24.673Z,10.96
2023-02-17T12:23:24.584Z,10.88
2023-02-17T12:24:24.593Z,10.80
2023-02-17T12:25:24.672Z,10.71
2023-02-17T12:26:24.547Z,10.65
2023-02-17T12:27:24.588Z,10.61
2023-02-17T12:28:24.535Z,10.59
2023-02-17T12:29:24.525Z,10.57
2023-02-17T12:30:24.699Z,10.55
2023-02-17T12:31:24.544Z,10.55
2023-02-17T12:32:24.565Z,10.56
2023-02-17T12:33:24.493Z,10.57
2023-02-17T12:34:24.511Z,10.58
2023-02-17T12:35:24.476Z,10.61
2023-02-17T12:36:24.446Z,10.59
2023-02-17T12:37:24.396Z,10.54
2023-02-17T12:38:24.386Z,10.51
2023-02-17T12:39:24.383Z,10.50
2023-02-17T12:40:24.379Z,10.51
2023-02-17T12:41:24.343Z,10.53
2023-02-17T12:42:24.426Z,10.58
2023-02-17T12:43:24.312Z,10.65
2023-02-17T12:44:24.356Z,10.75
2023-02-17T12:45:24.353Z,10.87
2023-02-17T12:46:24.418Z,11.03
2023-02-17T12:47:24.283Z,11.17
2023-02-17T12:48:24.284Z,11.29
2023-02-17T12:49:24.269Z,11.37
2023-02-17T12:50:24.229Z,11.45
2023-02-17T12:51:24.239Z,11.54
2023-02-17T12:52:24.237Z,11.60
2023-02-17T12:53:24.174Z,11.62
2023-02-17T12:54:24.219Z,11.63
2023-02-17T12:55:24.186Z,11.67
2023-02-17T12:56:24.161Z,11.68
2023-02-17T12:57:24.247Z,11.65
2023-02-17T12:58:24.212Z,11.62
2023-02-17T12:59:24.210Z,11.58
2023-02-17T13:00:24.155Z,11.55
2023-02-17T13:01:24.147Z,11.52
2023-02-17T13:02:24.116Z,11.50
2023-02-17T13:03:24.049Z,11.52
2023-02-17T13:04:24.053Z,11.58
2023-02-17T13:05:24.042Z,11.59
2023-02-17T13:06:24.080Z,11.57
2023-02-17T13:07:24.005Z,11.55
2023-02-17T13:08:24.017Z,11.52
2023-02-17T13:09:24.282Z,11.49
2023-02-17T13:10:23.986Z,11.50
2023-02-17T13:11:23.971Z,11.50
2023-02-17T13:12:23.991Z,11.50
2023-02-17T13:13:23.977Z,11.51
2023-02-17T13:14:23.923Z,11.54
2023-02-17T13:15:23.922Z,11.56
2023-02-17T13:16:23.962Z,11.52
2023-02-17T13:17:23.928Z,11.48
2023-02-17T13:18:23.896Z,11.47
2023-02-17T13:19:23.845Z,11.50
2023-02-17T13:20:23.851Z,11.48
2023-02-17T13:21:23.860Z,11.45
2023-02-17T13:22:23.925Z,11.46
2023-02-17T13:23:23.862Z,11.47
2023-02-17T13:24:23.822Z,11.47
2023-02-17T13:25:23.800Z,11.47
2023-02-17T13:26:23.814Z,11.43
2023-02-17T13:27:23.756Z,11.34
2023-02-17T13:28:23.741Z,11.23
2023-02-17T13:29:23.735Z,11.15
2023-02-17T13:30:24.067Z,11.07
2023-02-17T13:31:23.821Z,11.00
2023-02-17T13:32:23.726Z,10.91
2023-02-17T13:33:23.665Z,10.83
2023-02-17T13:34:23.677Z,10.76
2023-02-17T13:35:23.711Z,10.69
2023-02-17T13:36:23.720Z,10.63
2023-02-17T13:37:23.646Z,10.56
2023-02-17T13:38:23.614Z,10.47
2023-02-17T13:39:23.630Z,10.41
2023-02-17T13:40:23.580Z,10.35
2023-02-17T13:41:23.560Z,10.30
2023-02-17T13:42:23.592Z,10.23
2023-02-17T13:43:23.551Z,10.17
2023-02-17T13:44:23.517Z,10.12
2023-02-17T13:45:23.527Z,10.09
2023-02-17T13:46:23.601Z,10.06
2023-02-17T13:47:23.522Z,10.02
2023-02-17T13:48:23.997Z,9.98
2023-02-17T13:49:23.481Z,9.96
2023-02-17T13:50:23.456Z,9.94
2023-02-17T13:51:23.454Z,9.92
2023-02-17T13:52:23.428Z,9.91
2023-02-17T13:53:23.477Z,9.93
2023-02-17T13:54:23.413Z,9.93
2023-02-17T13:55:23.378Z,9.93
2023-02-17T13:56:23.384Z,9.94
2023-02-17T13:57:23.368Z,9.96
2023-02-17T13:58:23.344Z,10.00
2023-02-17T13:59:23.342Z,10.03
2023-02-17T14:00:23.351Z,10.03
2023-02-17T14:01:23.327Z,10.04
2023-02-17T14:02:35.458Z,10.03
2023-02-17T14:03:23.282Z,10.03
2023-02-17T14:04:23.352Z,10.03
2023-02-17T14:05:23.280Z,10.03
2023-02-17T14:06:23.274Z,10.03
2023-02-17T14:07:23.234Z,10.03
2023-02-17T14:08:23.210Z,10.03
2023-02-17T14:09:23.199Z,10.03
2023-02-17T14:10:23.203Z,10.02
2023-02-17T14:11:23.167Z,10.01
2023-02-17T14:12:23.221Z,10.01
2023-02-17T14:13:23.136Z,10.01
2023-02-17T14:14:23.159Z,10.00
2023-02-17T14:15:23.154Z,10.00
2023-02-17T14:16:23.103Z,10.01
2023-02-17T14:17:23.152Z,10.03
2023-02-17T14:18:23.110Z,10.04
2023-02-17T14:19:23.100Z,10.06
2023-02-17T14:20:23.054Z,10.09
2023-02-17T14:21:23.055Z,10.13
2023-02-17T14:22:23.031Z,10.15
2023-02-17T14:23:23.012Z,10.16
2023-02-17T14:24:23.132Z,10.16
2023-02-17T14:25:23.013Z,10.16
2023-02-17T14:26:22.974Z,10.17
2023-02-17T14:27:22.966Z,10.18
2023-02-17T14:28:23.005Z,10.19
2023-02-17T14:29:22.957Z,10.20
2023-02-17T14:30:23.011Z,10.21
2023-02-17T14:31:23.030Z,10.22
2023-02-17T14:32:22.901Z,10.22
2023-02-17T14:33:22.895Z,10.22
2023-02-17T14:34:22.901Z,10.22
2023-02-17T14:35:22.914Z,10.22
2023-02-17T14:36:22.948Z,10.24
2023-02-17T14:37:22.840Z,10.26
2023-02-17T14:38:22.816Z,10.28
2023-02-17T14:39:22.818Z,10.29
2023-02-17T14:40:22.814Z,10.30
2023-02-17T14:41:22.779Z,10.30
2023-02-17T14:42:22.789Z,10.32
2023-02-17T14:43:22.754Z,10.38
2023-02-17T14:44:22.741Z,10.46
2023-02-17T14:45:22.795Z,10.57
2023-02-17T14:46:22.777Z,10.68
2023-02-17T14:47:22.726Z,10.76
2023-02-17T14:48:25.377Z,10.83
2023-02-17T14:49:22.722Z,10.89
2023-02-17T14:50:22.697Z,10.94
2023-02-17T14:51:22.672Z,10.99
2023-02-17T14:52:22.640Z,11.04
2023-02-17T14:53:22.648Z,11.09
2023-02-17T14:54:25.242Z,11.15
2023-02-17T14:55:22.607Z,11.20
2023-02-17T14:56:22.617Z,11.23
2023-02-17T14:57:22.585Z,11.26
2023-02-17T14:58:22.575Z,11.27
2023-02-17T14:59:22.554Z,11.26
2023-02-17T15:00:22.577Z,11.22
2023-02-17T15:01:22.550Z,11.18
2023-02-17T15:02:22.542Z,11.14
2023-02-17T15:03:22.516Z,11.10
2023-02-17T15:04:22.481Z,11.07
2023-02-17T15:05:22.487Z,11.04
2023-02-17T15:06:22.488Z,11.00
2023-02-17T15:07:22.446Z,10.97
2023-02-17T15:08:22.434Z,10.94
2023-02-17T15:09:22.453Z,10.92
2023-02-17T15:10:22.448Z,10.92
2023-02-17T15:11:22.447Z,10.93
2023-02-17T15:12:22.430Z,10.94
2023-02-17T15:13:22.390Z,10.95
2023-02-17T15:14:22.394Z,10.94
2023-02-17T15:15:22.352Z,10.92
2023-02-17T15:16:22.475Z,10.89
2023-02-17T15:17:22.323Z,10.86
2023-02-17T15:18:22.388Z,10.83
2023-02-17T15:19:22.296Z,10.81
2023-02-17T15:20:22.298Z,10.78
2023-02-17T15:21:22.265Z,10.74
2023-02-17T15:22:22.274Z,10.67
2023-02-17T15:23:22.253Z,10.61
2023-02-17T15:24:22.259Z,10.55
2023-02-17T15:25:22.238Z,10.49
2023-02-17T15:26:22.248Z,10.42
2023-02-17T15:27:22.200Z,10.36
2023-02-17T15:28:22.182Z,10.30
2023-02-17T15:29:22.173Z,10.24
2023-02-17T15:30:22.456Z,10.19
2023-02-17T15:31:22.226Z,10.13
2023-02-17T15:32:22.245Z,10.08
2023-02-17T15:33:22.101Z,10.03
2023-02-17T15:34:22.111Z,9.98
2023-02-17T15:35:22.094Z,9.94
2023-02-17T15:36:22.131Z,9.92
2023-02-17T15:37:22.087Z,9.90
2023-02-17T15:38:22.061Z,9.89
2023-02-17T15:39:22.031Z,9.88
2023-02-17T15:40:22.049Z,9.87
2023-02-17T15:41:22.044Z,9.86
2023-02-17T15:42:22.033Z,9.84
2023-02-17T15:43:22.016Z,9.81
2023-02-17T15:44:21.968Z,9.78
2023-02-17T15:45:21.966Z,9.75
2023-02-17T15:46:22.004Z,9.71
2023-02-17T15:47:21.948Z,9.64
2023-02-17T15:48:21.955Z,9.58
2023-02-17T15:49:21.906Z,9.51
2023-02-17T15:50:21.898Z,9.45
2023-02-17T15:51:21.864Z,9.40
2023-02-17T15:52:21.864Z,9.38
2023-02-17T15:53:21.890Z,9.36
2023-02-17T15:54:21.902Z,9.36
2023-02-17T15:55:21.816Z,9.36
2023-02-17T15:56:21.812Z,9.39
2023-02-17T15:57:22.108Z,9.42
2023-02-17T15:58:21.797Z,9.45
2023-02-17T15:59:21.775Z,9.47
2023-02-17T16:00:21.828Z,9.50
2023-02-17T16:01:21.737Z,9.52
2023-02-17T16:02:21.749Z,9.54
2023-02-17T16:03:21.811Z,9.53
2023-02-17T16:04:21.733Z,9.52
2023-02-17T16:05:21.720Z,9.50
2023-02-17T16:06:21.710Z,9.48
2023-02-17T16:07:21.684Z,9.45
2023-02-17T16:08:21.644Z,9.42
2023-02-17T16:09:21.653Z,9.38
2023-02-17T16:10:21.683Z,9.32
2023-02-17T16:11:21.603Z,9.27
2023-02-17T16:12:22.006Z,9.21
2023-02-17T16:13:21.584Z,9.15
2023-02-17T16:14:21.612Z,9.10
2023-02-17T16:15:22.377Z,9.06
2023-02-17T16:16:21.586Z,9.01
2023-02-17T16:17:22.442Z,8.96
2023-02-17T16:18:21.568Z,8.91
2023-02-17T16:19:21.525Z,8.87
2023-02-17T16:20:21.497Z,8.84
2023-02-17T16:21:21.472Z,8.82
2023-02-17T16:22:21.469Z,8.80
2023-02-17T16:23:21.494Z,8.78
2023-02-17T16:24:21.496Z,8.75
2023-02-17T16:25:21.434Z,8.73
2023-02-17T16:26:21.434Z,8.70
2023-02-17T16:27:21.506Z,8.67
2023-02-17T16:28:21.455Z,8.64
2023-02-17T16:29:21.412Z,8.61
2023-02-17T16:30:21.520Z,8.59
2023-02-17T16:31:21.460Z,8.58
2023-02-17T16:32:22.089Z,8.58
2023-02-17T16:33:21.318Z,8.57